sensor_id;sensor_type;location;lat;lon;timestamp;pressure;altitude;pressure_sealevel;temperature;humidity
58690;BME280;44470;53.206;-6.106;2023-04-08T00:00:01;102142.97;;;20.31;51.26
58690;BME280;44470;53.206;-6.106;2023-04-08T00:02:35;102159.03;;;20.40;51.03
58690;BME280;44470;53.206;-6.106;2023-04-08T00:05:01;102166.16;;;20.38;50.83
58690;BME280;44470;53.206;-6.106;2023-04-08T00:07:26;102168.81;;;20.40;50.61
58690;BME280;44470;53.206;-6.106;2023-04-08T00:09:52;102168.84;;;20.41;50.86
58690;BME280;44470;53.206;-6.106;2023-04-08T00:12:18;102170.63;;;20.39;50.56
58690;BME280;44470;53.206;-6.106;2023-04-08T00:14:43;102167.94;;;20.41;50.92
58690;BME280;44470;53.206;-6.106;2023-04-08T00:17:09;102145.66;;;20.28;50.69
58690;BME280;44470;53.206;-6.106;2023-04-08T00:19:34;102161.69;;;20.37;50.38
58690;BME280;44470;53.206;-6.106;2023-04-08T00:22:00;102163.47;;;20.35;50.43
58690;BME280;44470;53.206;-6.106;2023-04-08T00:24:26;102152.78;;;20.29;51.10
58690;BME280;44470;53.206;-6.106;2023-04-08T00:26:51;102164.38;;;20.37;50.71
58690;BME280;44470;53.206;-6.106;2023-04-08T00:29:16;102159.91;;;20.36;50.57
58690;BME280;44470;53.206;-6.106;2023-04-08T00:31:42;102139.41;;;20.24;50.79
58690;BME280;44470;53.206;-6.106;2023-04-08T00:34:08;102155.44;;;20.33;50.51
58690;BME280;44470;53.206;-6.106;2023-04-08T00:36:33;102134.06;;;20.23;50.54
58690;BME280;44470;53.206;-6.106;2023-04-08T00:39:00;102151.00;;;20.34;50.54
58690;BME280;44470;53.206;-6.106;2023-04-08T00:41:26;102151.00;;;20.34;50.64
58690;BME280;44470;53.206;-6.106;2023-04-08T00:43:53;102162.56;;;20.35;50.52
58690;BME280;44470;53.206;-6.106;2023-04-08T00:46:19;102159.00;;;20.32;50.31
58690;BME280;44470;53.206;-6.106;2023-04-08T00:48:45;102158.13;;;20.35;50.67
58690;BME280;44470;53.206;-6.106;2023-04-08T00:51:11;102156.34;;;20.31;50.39
58690;BME280;44470;53.206;-6.106;2023-04-08T00:53:37;102151.00;;;20.29;50.34
58690;BME280;44470;53.206;-6.106;2023-04-08T00:56:02;102167.06;;;20.34;50.51
58690;BME280;44470;53.206;-6.106;2023-04-08T00:58:28;102133.19;;;20.21;50.14
58690;BME280;44470;53.206;-6.106;2023-04-08T01:01:11;102158.13;;;20.32;50.09
58690;BME280;44470;53.206;-6.106;2023-04-08T01:08:45;102147.44;;;20.30;50.48
58690;BME280;44470;53.206;-6.106;2023-04-08T01:11:12;102150.13;;;20.32;50.67
58690;BME280;44470;53.206;-6.106;2023-04-08T01:13:40;102152.78;;;20.32;50.40
58690;BME280;44470;53.206;-6.106;2023-04-08T01:16:12;102150.13;;;20.29;50.50
58690;BME280;44470;53.206;-6.106;2023-04-08T01:18:40;102152.78;;;20.30;50.39
58690;BME280;44470;53.206;-6.106;2023-04-08T01:21:06;102147.44;;;20.29;50.13
58690;BME280;44470;53.206;-6.106;2023-04-08T01:23:45;102151.00;;;20.31;50.38
58690;BME280;44470;53.206;-6.106;2023-04-08T01:26:21;102127.84;;;20.17;50.69
58690;BME280;44470;53.206;-6.106;2023-04-08T01:28:52;102150.13;;;20.29;50.62
58690;BME280;44470;53.206;-6.106;2023-04-08T01:31:21;102153.66;;;20.29;50.38
58690;BME280;44470;53.206;-6.106;2023-04-08T01:33:48;102151.88;;;20.31;50.78
58690;BME280;44470;53.206;-6.106;2023-04-08T01:36:16;102155.47;;;20.29;49.98
58690;BME280;44470;53.206;-6.106;2023-04-08T01:38:42;102156.34;;;20.28;50.34
58690;BME280;44470;53.206;-6.106;2023-04-08T01:41:10;102125.13;;;20.13;50.56
58690;BME280;44470;53.206;-6.106;2023-04-08T01:43:38;102159.91;;;20.27;50.23
58690;BME280;44470;53.206;-6.106;2023-04-08T01:46:05;102134.94;;;20.15;50.60
58690;BME280;44470;53.206;-6.106;2023-04-08T01:48:34;102140.31;;;20.18;50.34
58690;BME280;44470;53.206;-6.106;2023-04-08T01:51:02;102134.94;;;20.15;50.23
58690;BME280;44470;53.206;-6.106;2023-04-08T01:53:28;102151.88;;;20.24;50.32
58690;BME280;44470;53.206;-6.106;2023-04-08T01:55:57;102154.56;;;20.30;50.50
58690;BME280;44470;53.206;-6.106;2023-04-08T01:58:30;102143.88;;;20.27;50.04
58690;BME280;44470;53.206;-6.106;2023-04-08T02:00:57;102142.09;;;20.29;50.13
58690;BME280;44470;53.206;-6.106;2023-04-08T02:03:24;102140.31;;;20.28;50.18
58690;BME280;44470;53.206;-6.106;2023-04-08T02:05:51;102145.66;;;20.28;50.03
58690;BME280;44470;53.206;-6.106;2023-04-08T02:08:17;102142.06;;;20.27;50.07
58690;BME280;44470;53.206;-6.106;2023-04-08T02:10:42;102142.06;;;20.27;50.31
58690;BME280;44470;53.206;-6.106;2023-04-08T02:13:08;102144.75;;;20.29;50.25
58690;BME280;44470;53.206;-6.106;2023-04-08T02:15:35;102131.38;;;20.16;50.39
58690;BME280;44470;53.206;-6.106;2023-04-08T02:18:12;102148.31;;;20.26;50.05
58690;BME280;44470;53.206;-6.106;2023-04-08T02:20:53;102138.50;;;20.25;50.12
58690;BME280;44470;53.206;-6.106;2023-04-08T02:23:24;102134.97;;;20.18;50.57
58690;BME280;44470;53.206;-6.106;2023-04-08T02:25:55;102155.47;;;20.29;50.57
58690;BME280;44470;53.206;-6.106;2023-04-08T02:28:25;102149.22;;;20.28;50.23
58690;BME280;44470;53.206;-6.106;2023-04-08T02:30:53;102145.66;;;20.28;50.27
58690;BME280;44470;53.206;-6.106;2023-04-08T02:33:21;102140.31;;;20.28;50.25
58690;BME280;44470;53.206;-6.106;2023-04-08T02:35:50;102155.44;;;20.30;50.50
58690;BME280;44470;53.206;-6.106;2023-04-08T02:38:19;102146.53;;;20.28;49.76
58690;BME280;44470;53.206;-6.106;2023-04-08T02:40:48;102152.78;;;20.30;50.57
58690;BME280;44470;53.206;-6.106;2023-04-08T02:43:14;102152.78;;;20.29;50.05
58690;BME280;44470;53.206;-6.106;2023-04-08T02:45:41;102163.47;;;20.32;50.04
58690;BME280;44470;53.206;-6.106;2023-04-08T02:48:07;102159.91;;;20.30;50.36
58690;BME280;44470;53.206;-6.106;2023-04-08T02:50:33;102151.91;;;20.30;49.88
58690;BME280;44470;53.206;-6.106;2023-04-08T02:52:58;102154.56;;;20.31;50.08
58690;BME280;44470;53.206;-6.106;2023-04-08T02:55:24;102154.56;;;20.33;49.80
58690;BME280;44470;53.206;-6.106;2023-04-08T02:57:49;102151.00;;;20.28;49.48
58690;BME280;44470;53.206;-6.106;2023-04-08T03:00:15;102157.25;;;20.33;49.86
58690;BME280;44470;53.206;-6.106;2023-04-08T03:02:41;102143.88;;;20.27;50.05
58690;BME280;44470;53.206;-6.106;2023-04-08T03:05:07;102137.63;;;20.26;49.51
58690;BME280;44470;53.206;-6.106;2023-04-08T03:07:34;102142.09;;;20.26;49.71
58690;BME280;44470;53.206;-6.106;2023-04-08T03:10:00;102154.56;;;20.33;49.50
58690;BME280;44470;53.206;-6.106;2023-04-08T03:12:26;102133.16;;;20.22;50.16
58690;BME280;44470;53.206;-6.106;2023-04-08T03:14:52;102148.31;;;20.32;49.76
58690;BME280;44470;53.206;-6.106;2023-04-08T03:17:18;102149.22;;;20.33;49.50
58690;BME280;44470;53.206;-6.106;2023-04-08T03:19:43;102150.13;;;20.32;49.55
58690;BME280;44470;53.206;-6.106;2023-04-08T03:22:09;102148.31;;;20.32;49.74
58690;BME280;44470;53.206;-6.106;2023-04-08T03:24:35;102145.66;;;20.31;50.10
58690;BME280;44470;53.206;-6.106;2023-04-08T03:27:01;102145.66;;;20.34;49.88
58690;BME280;44470;53.206;-6.106;2023-04-08T03:29:26;102148.31;;;20.36;49.56
58690;BME280;44470;53.206;-6.106;2023-04-08T03:31:52;102134.06;;;20.29;49.39
58690;BME280;44470;53.206;-6.106;2023-04-08T03:34:17;102141.19;;;20.36;49.80
58690;BME280;44470;53.206;-6.106;2023-04-08T03:36:43;102106.44;;;20.17;50.26
58690;BME280;44470;53.206;-6.106;2023-04-08T03:39:09;102142.97;;;20.36;49.52
58690;BME280;44470;53.206;-6.106;2023-04-08T03:41:35;102135.84;;;20.33;50.14
58690;BME280;44470;53.206;-6.106;2023-04-08T03:44:00;102121.59;;;20.28;49.31
58690;BME280;44470;53.206;-6.106;2023-04-08T03:46:26;102115.34;;;20.24;49.50
58690;BME280;44470;53.206;-6.106;2023-04-08T03:48:51;102140.31;;;20.40;49.38
58690;BME280;44470;53.206;-6.106;2023-04-08T03:55:04;102131.41;;;20.38;48.78
58690;BME280;44470;53.206;-6.106;2023-04-08T03:57:30;102117.13;;;20.28;49.48
58690;BME280;44470;53.206;-6.106;2023-04-08T03:59:55;102129.63;;;20.40;48.88
58690;BME280;44470;53.206;-6.106;2023-04-08T04:02:22;102121.56;;;20.39;49.47
58690;BME280;44470;53.206;-6.106;2023-04-08T04:04:47;102111.78;;;20.39;49.34
58690;BME280;44470;53.206;-6.106;2023-04-08T04:07:13;102117.13;;;20.39;49.28
58690;BME280;44470;53.206;-6.106;2023-04-08T04:09:38;102120.69;;;20.38;49.21
58690;BME280;44470;53.206;-6.106;2023-04-08T04:12:04;102113.56;;;20.36;48.79
58690;BME280;44470;53.206;-6.106;2023-04-08T04:14:29;102111.78;;;20.39;48.69
58690;BME280;44470;53.206;-6.106;2023-04-08T04:16:55;102127.84;;;20.42;49.02
58690;BME280;44470;53.206;-6.106;2023-04-08T04:19:20;102130.50;;;20.42;48.72
58690;BME280;44470;53.206;-6.106;2023-04-08T04:21:46;102125.13;;;20.41;49.22
58690;BME280;44470;53.206;-6.106;2023-04-08T04:24:11;102131.41;;;20.44;48.98
58690;BME280;44470;53.206;-6.106;2023-04-08T04:26:40;102126.06;;;20.41;48.76
58690;BME280;44470;53.206;-6.106;2023-04-08T04:29:06;102124.25;;;20.40;49.03
58690;BME280;44470;53.206;-6.106;2023-04-08T04:31:31;102135.84;;;20.42;49.35
58690;BME280;44470;53.206;-6.106;2023-04-08T04:33:57;102131.41;;;20.41;49.02
58690;BME280;44470;53.206;-6.106;2023-04-08T04:36:22;102137.63;;;20.43;49.01
58690;BME280;44470;53.206;-6.106;2023-04-08T04:38:48;102119.78;;;20.31;49.39
58690;BME280;44470;53.206;-6.106;2023-04-08T04:41:14;102138.53;;;20.45;49.57
58690;BME280;44470;53.206;-6.106;2023-04-08T04:43:40;102133.19;;;20.45;48.96
58690;BME280;44470;53.206;-6.106;2023-04-08T04:46:06;102134.06;;;20.44;49.18
58690;BME280;44470;53.206;-6.106;2023-04-08T04:48:34;102132.28;;;20.43;49.03
58690;BME280;44470;53.206;-6.106;2023-04-08T04:51:00;102115.34;;;20.35;48.92
58690;BME280;44470;53.206;-6.106;2023-04-08T04:53:27;102131.41;;;20.44;49.16
58690;BME280;44470;53.206;-6.106;2023-04-08T04:55:53;102115.34;;;20.35;49.15
58690;BME280;44470;53.206;-6.106;2023-04-08T04:58:19;102125.16;;;20.47;48.71
58690;BME280;44470;53.206;-6.106;2023-04-08T05:00:45;102104.66;;;20.38;49.42
58690;BME280;44470;53.206;-6.106;2023-04-08T05:03:11;102106.44;;;20.36;49.15
58690;BME280;44470;53.206;-6.106;2023-04-08T05:05:37;102120.69;;;20.44;49.18
58690;BME280;44470;53.206;-6.106;2023-04-08T05:08:03;102116.25;;;20.37;49.33
58690;BME280;44470;53.206;-6.106;2023-04-08T05:10:28;102136.75;;;20.46;49.35
58690;BME280;44470;53.206;-6.106;2023-04-08T05:12:54;102133.19;;;20.45;49.38
58690;BME280;44470;53.206;-6.106;2023-04-08T05:15:20;102145.66;;;20.53;49.09
58690;BME280;44470;53.206;-6.106;2023-04-08T05:17:45;102137.66;;;20.45;49.33
58690;BME280;44470;53.206;-6.106;2023-04-08T05:20:11;102143.88;;;20.50;48.83
58690;BME280;44470;53.206;-6.106;2023-04-08T05:22:37;102143.00;;;20.51;48.73
58690;BME280;44470;53.206;-6.106;2023-04-08T05:25:03;102134.09;;;20.52;49.15
58690;BME280;44470;53.206;-6.106;2023-04-08T05:27:29;102134.09;;;20.49;48.35
58690;BME280;44470;53.206;-6.106;2023-04-08T05:29:55;102131.38;;;20.51;48.32
58690;BME280;44470;53.206;-6.106;2023-04-08T05:32:21;102126.06;;;20.41;48.84
58690;BME280;44470;53.206;-6.106;2023-04-08T05:34:46;102134.97;;;20.48;48.43
58690;BME280;44470;53.206;-6.106;2023-04-08T05:37:12;102131.38;;;20.51;48.31
58690;BME280;44470;53.206;-6.106;2023-04-08T05:39:37;102141.19;;;20.52;48.31
58690;BME280;44470;53.206;-6.106;2023-04-08T05:42:03;102140.31;;;20.53;49.01
58690;BME280;44470;53.206;-6.106;2023-04-08T05:44:29;102143.00;;;20.51;48.96
58690;BME280;44470;53.206;-6.106;2023-04-08T05:46:54;102131.41;;;20.52;48.89
58690;BME280;44470;53.206;-6.106;2023-04-08T05:49:21;102119.81;;;20.45;48.51
58690;BME280;44470;53.206;-6.106;2023-04-08T05:51:47;102135.84;;;20.55;48.63
58690;BME280;44470;53.206;-6.106;2023-04-08T05:54:12;102136.75;;;20.55;48.43
58690;BME280;44470;53.206;-6.106;2023-04-08T05:56:38;102139.41;;;20.57;48.42
58690;BME280;44470;53.206;-6.106;2023-04-08T05:59:03;102134.06;;;20.54;48.35
58690;BME280;44470;53.206;-6.106;2023-04-08T06:01:29;102118.91;;;20.46;48.50
58690;BME280;44470;53.206;-6.106;2023-04-08T06:03:55;102134.06;;;20.60;48.23
58690;BME280;44470;53.206;-6.106;2023-04-08T06:06:26;102139.41;;;20.60;47.87
58690;BME280;44470;53.206;-6.106;2023-04-08T06:08:51;102136.72;;;20.60;47.79
58690;BME280;44470;53.206;-6.106;2023-04-08T06:11:17;102139.44;;;20.58;48.19
58690;BME280;44470;53.206;-6.106;2023-04-08T06:17:29;102148.34;;;20.57;47.58
58690;BME280;44470;53.206;-6.106;2023-04-08T06:19:55;102156.38;;;20.60;48.23
58690;BME280;44470;53.206;-6.106;2023-04-08T06:22:20;102154.56;;;20.61;48.02
58690;BME280;44470;53.206;-6.106;2023-04-08T06:24:47;102150.13;;;20.61;48.29
58690;BME280;44470;53.206;-6.106;2023-04-08T06:27:13;102147.44;;;20.61;48.28
58690;BME280;44470;53.206;-6.106;2023-04-08T06:29:38;102142.06;;;20.63;48.02
58690;BME280;44470;53.206;-6.106;2023-04-08T06:32:05;102152.78;;;20.63;48.74
58690;BME280;44470;53.206;-6.106;2023-04-08T06:34:30;102151.91;;;20.62;48.30
58690;BME280;44470;53.206;-6.106;2023-04-08T06:36:56;102132.28;;;20.51;48.86
58690;BME280;44470;53.206;-6.106;2023-04-08T06:39:22;102161.69;;;20.65;48.91
58690;BME280;44470;53.206;-6.106;2023-04-08T06:41:48;102165.28;;;20.66;48.51
58690;BME280;44470;53.206;-6.106;2023-04-08T06:44:52;102159.91;;;20.64;47.92
58690;BME280;44470;53.206;-6.106;2023-04-08T06:47:17;102170.59;;;20.67;47.98
58690;BME280;44470;53.206;-6.106;2023-04-08T06:49:43;102170.59;;;20.67;48.77
58690;BME280;44470;53.206;-6.106;2023-04-08T06:52:08;102173.28;;;20.64;48.98
58690;BME280;44470;53.206;-6.106;2023-04-08T06:54:34;102172.41;;;20.65;48.21
58690;BME280;44470;53.206;-6.106;2023-04-08T06:56:59;102170.59;;;20.67;48.72
58690;BME280;44470;53.206;-6.106;2023-04-08T06:59:25;102180.44;;;20.71;48.36
58690;BME280;44470;53.206;-6.106;2023-04-08T07:01:50;102180.44;;;20.67;48.57
58690;BME280;44470;53.206;-6.106;2023-04-08T07:04:16;102180.44;;;20.68;48.41
58690;BME280;44470;53.206;-6.106;2023-04-08T07:06:41;102187.56;;;20.71;48.89
58690;BME280;44470;53.206;-6.106;2023-04-08T07:09:07;102188.47;;;20.68;48.70
58690;BME280;44470;53.206;-6.106;2023-04-08T07:11:33;102192.03;;;20.72;49.16
58690;BME280;44470;53.206;-6.106;2023-04-08T07:13:58;102195.63;;;20.69;48.74
58690;BME280;44470;53.206;-6.106;2023-04-08T07:16:24;102191.13;;;20.70;48.76
58690;BME280;44470;53.206;-6.106;2023-04-08T07:18:50;102202.75;;;20.73;48.72
58690;BME280;44470;53.206;-6.106;2023-04-08T07:21:16;102201.84;;;20.71;49.09
58690;BME280;44470;53.206;-6.106;2023-04-08T07:23:42;102198.25;;;20.74;48.82
58690;BME280;44470;53.206;-6.106;2023-04-08T07:26:07;102200.97;;;20.72;48.37
58690;BME280;44470;53.206;-6.106;2023-04-08T07:28:33;102197.41;;;20.70;48.42
58690;BME280;44470;53.206;-6.106;2023-04-08T07:31:14;102193.81;;;20.71;48.97
58690;BME280;44470;53.206;-6.106;2023-04-08T07:33:41;102195.63;;;20.69;48.75
58690;BME280;44470;53.206;-6.106;2023-04-08T07:36:11;102204.53;;;20.71;47.95
58690;BME280;44470;53.206;-6.106;2023-04-08T07:38:40;102205.41;;;20.75;47.82
58690;BME280;44470;53.206;-6.106;2023-04-08T07:41:06;102217.00;;;20.72;47.95
58690;BME280;44470;53.206;-6.106;2023-04-08T07:43:32;102211.66;;;20.75;48.01
58690;BME280;44470;53.206;-6.106;2023-04-08T07:46:01;102220.56;;;20.77;48.59
58690;BME280;44470;53.206;-6.106;2023-04-08T07:48:28;102213.44;;;20.72;47.97
58690;BME280;44470;53.206;-6.106;2023-04-08T07:54:15;102217.88;;;20.73;47.92
58690;BME280;44470;53.206;-6.106;2023-04-08T07:56:43;102213.44;;;20.70;48.02
58690;BME280;44470;53.206;-6.106;2023-04-08T07:59:12;102191.13;;;20.60;48.09
58690;BME280;44470;53.206;-6.106;2023-04-08T08:01:38;102227.72;;;20.75;48.22
58690;BME280;44470;53.206;-6.106;2023-04-08T08:04:03;102225.94;;;20.74;47.51
58690;BME280;44470;53.206;-6.106;2023-04-08T08:06:29;102222.38;;;20.75;47.81
58690;BME280;44470;53.206;-6.106;2023-04-08T08:08:58;102217.00;;;20.69;48.12
58690;BME280;44470;53.206;-6.106;2023-04-08T08:11:24;102232.19;;;20.81;48.37
58690;BME280;44470;53.206;-6.106;2023-04-08T08:13:51;102233.97;;;20.77;48.32
58690;BME280;44470;53.206;-6.106;2023-04-08T08:16:16;102231.28;;;20.77;48.34
58690;BME280;44470;53.206;-6.106;2023-04-08T08:18:42;102243.81;;;20.82;48.59
58690;BME280;44470;53.206;-6.106;2023-04-08T08:21:07;102242.91;;;20.83;48.98
58690;BME280;44470;53.206;-6.106;2023-04-08T08:23:33;102237.53;;;20.76;48.45
58690;BME280;44470;53.206;-6.106;2023-04-08T08:26:00;102218.78;;;20.73;49.03
58690;BME280;44470;53.206;-6.106;2023-04-08T08:28:25;102231.31;;;20.81;48.23
58690;BME280;44470;53.206;-6.106;2023-04-08T08:30:51;102225.94;;;20.77;48.63
58690;BME280;44470;53.206;-6.106;2023-04-08T08:33:17;102218.78;;;20.73;48.83
58690;BME280;44470;53.206;-6.106;2023-04-08T08:35:42;102238.44;;;20.85;48.61
58690;BME280;44470;53.206;-6.106;2023-04-08T08:38:07;102243.78;;;20.86;48.52
58690;BME280;44470;53.206;-6.106;2023-04-08T08:40:33;102213.44;;;20.72;48.62
58690;BME280;44470;53.206;-6.106;2023-04-08T08:42:58;102241.09;;;20.86;48.43
58690;BME280;44470;53.206;-6.106;2023-04-08T08:45:25;102235.78;;;20.85;49.22
58690;BME280;44470;53.206;-6.106;2023-04-08T08:47:51;102237.53;;;20.87;48.44
58690;BME280;44470;53.206;-6.106;2023-04-08T08:50:17;102235.78;;;20.85;48.79
58690;BME280;44470;53.206;-6.106;2023-04-08T08:52:50;102234.88;;;20.89;48.70
58690;BME280;44470;53.206;-6.106;2023-04-08T08:55:20;102225.97;;;20.81;49.24
58690;BME280;44470;53.206;-6.106;2023-04-08T08:57:48;102217.91;;;20.77;48.75
58690;BME280;44470;53.206;-6.106;2023-04-08T09:00:15;102243.78;;;20.91;49.74
58690;BME280;44470;53.206;-6.106;2023-04-08T09:02:41;102226.84;;;20.87;50.20
58690;BME280;44470;53.206;-6.106;2023-04-08T09:05:06;102234.88;;;20.92;50.48
58690;BME280;44470;53.206;-6.106;2023-04-08T09:07:37;102243.78;;;20.94;51.26
58690;BME280;44470;53.206;-6.106;2023-04-08T09:10:06;102222.41;;;20.82;51.11
58690;BME280;44470;53.206;-6.106;2023-04-08T09:12:32;102240.22;;;20.95;50.63
58690;BME280;44470;53.206;-6.106;2023-04-08T09:15:08;102242.91;;;20.92;50.82
58690;BME280;44470;53.206;-6.106;2023-04-08T09:17:38;102249.16;;;20.91;50.64
58690;BME280;44470;53.206;-6.106;2023-04-08T09:20:11;102242.88;;;20.90;50.80
58690;BME280;44470;53.206;-6.106;2023-04-08T09:25:31;102234.88;;;20.92;50.47
58690;BME280;44470;53.206;-6.106;2023-04-08T09:27:57;102247.34;;;20.91;51.21
58690;BME280;44470;53.206;-6.106;2023-04-08T09:30:24;102219.72;;;20.79;51.01
58690;BME280;44470;53.206;-6.106;2023-04-08T09:32:55;102244.66;;;20.74;48.52
58690;BME280;44470;53.206;-6.106;2023-04-08T09:35:21;102249.16;;;20.79;49.52
58690;BME280;44470;53.206;-6.106;2023-04-08T09:37:48;102234.88;;;20.80;50.12
58690;BME280;44470;53.206;-6.106;2023-04-08T09:40:15;102240.22;;;20.83;50.01
58690;BME280;44470;53.206;-6.106;2023-04-08T09:42:44;102231.31;;;20.84;50.12
58690;BME280;44470;53.206;-6.106;2023-04-08T09:45:11;102220.56;;;20.71;50.16
58690;BME280;44470;53.206;-6.106;2023-04-08T09:47:54;102219.66;;;20.71;50.33
58690;BME280;44470;53.206;-6.106;2023-04-08T09:50:27;102247.34;;;20.82;50.02
58690;BME280;44470;53.206;-6.106;2023-04-08T09:53:11;102252.72;;;20.84;50.10
58690;BME280;44470;53.206;-6.106;2023-04-08T09:55:38;102243.81;;;20.85;50.36
58690;BME280;44470;53.206;-6.106;2023-04-08T09:58:14;102250.94;;;20.86;50.16
58690;BME280;44470;53.206;-6.106;2023-04-08T10:00:46;102244.69;;;20.84;50.32
58690;BME280;44470;53.206;-6.106;2023-04-08T10:03:34;102248.25;;;20.86;50.58
58690;BME280;44470;53.206;-6.106;2023-04-08T10:06:02;102250.94;;;20.83;50.41
58690;BME280;44470;53.206;-6.106;2023-04-08T10:08:29;102250.03;;;20.85;50.43
58690;BME280;44470;53.206;-6.106;2023-04-08T10:10:55;102250.03;;;20.84;50.35
58690;BME280;44470;53.206;-6.106;2023-04-08T10:13:22;102242.88;;;20.84;50.67
58690;BME280;44470;53.206;-6.106;2023-04-08T10:15:48;102244.69;;;20.84;50.67
58690;BME280;44470;53.206;-6.106;2023-04-08T10:20:42;102255.41;;;20.87;50.45
58690;BME280;44470;53.206;-6.106;2023-04-08T10:23:13;102242.91;;;20.83;50.49
58690;BME280;44470;53.206;-6.106;2023-04-08T10:25:40;102231.25;;;20.76;50.18
58690;BME280;44470;53.206;-6.106;2023-04-08T10:33:10;102252.72;;;20.87;50.23
58690;BME280;44470;53.206;-6.106;2023-04-08T10:35:39;102239.31;;;20.77;50.67
58690;BME280;44470;53.206;-6.106;2023-04-08T10:38:12;102242.91;;;20.83;50.12
58690;BME280;44470;53.206;-6.106;2023-04-08T10:40:39;102257.16;;;20.86;49.96
58690;BME280;44470;53.206;-6.106;2023-04-08T10:43:06;102234.84;;;20.70;50.17
58690;BME280;44470;53.206;-6.106;2023-04-08T10:45:32;102253.56;;;20.76;49.49
58690;BME280;44470;53.206;-6.106;2023-04-08T10:50:39;102245.59;;;20.80;50.01
58690;BME280;44470;53.206;-6.106;2023-04-08T10:53:05;102244.69;;;20.84;50.38
58690;BME280;44470;53.206;-6.106;2023-04-08T10:55:32;102241.13;;;20.82;50.04
58690;BME280;44470;53.206;-6.106;2023-04-08T10:58:05;102221.44;;;20.72;49.94
58690;BME280;44470;53.206;-6.106;2023-04-08T11:00:32;102240.22;;;20.80;50.06
58690;BME280;44470;53.206;-6.106;2023-04-08T11:03:05;102240.22;;;20.84;49.91
58690;BME280;44470;53.206;-6.106;2023-04-08T11:05:32;102223.25;;;20.71;49.83
58690;BME280;44470;53.206;-6.106;2023-04-08T11:07:58;102235.75;;;20.83;49.60
58690;BME280;44470;53.206;-6.106;2023-04-08T11:10:25;102226.81;;;20.78;48.55
58690;BME280;44470;53.206;-6.106;2023-04-08T11:12:55;102222.38;;;20.69;49.19
58690;BME280;44470;53.206;-6.106;2023-04-08T11:15:21;102235.78;;;20.82;49.75
58690;BME280;44470;53.206;-6.106;2023-04-08T11:17:48;102218.78;;;20.73;49.95
58690;BME280;44470;53.206;-6.106;2023-04-08T11:20:14;102229.50;;;20.73;49.75
58690;BME280;44470;53.206;-6.106;2023-04-08T11:22:39;102206.28;;;20.68;49.86
58690;BME280;44470;53.206;-6.106;2023-04-08T11:25:06;102218.78;;;20.73;49.64
58690;BME280;44470;53.206;-6.106;2023-04-08T11:27:34;102226.84;;;20.80;50.18
58690;BME280;44470;53.206;-6.106;2023-04-08T11:30:01;102227.75;;;20.82;49.96
58690;BME280;44470;53.206;-6.106;2023-04-08T11:32:27;102230.41;;;20.83;50.32
58690;BME280;44470;53.206;-6.106;2023-04-08T11:34:53;102223.28;;;20.81;49.93
58690;BME280;44470;53.206;-6.106;2023-04-08T11:37:19;102230.41;;;20.85;50.02
58690;BME280;44470;53.206;-6.106;2023-04-08T11:39:45;102231.28;;;20.71;49.31
58690;BME280;44470;53.206;-6.106;2023-04-08T11:42:31;102234.84;;;20.72;48.69
58690;BME280;44470;53.206;-6.106;2023-04-08T11:44:57;102233.97;;;20.68;47.85
58690;BME280;44470;53.206;-6.106;2023-04-08T11:47:32;102204.50;;;20.56;47.69
58690;BME280;44470;53.206;-6.106;2023-04-08T11:49:58;102203.59;;;20.44;47.48
58690;BME280;44470;53.206;-6.106;2023-04-08T11:52:49;102221.44;;;20.61;47.93
58690;BME280;44470;53.206;-6.106;2023-04-08T11:55:29;102238.38;;;20.66;48.37
58690;BME280;44470;53.206;-6.106;2023-04-08T11:57:56;102208.09;;;20.62;49.41
58690;BME280;44470;53.206;-6.106;2023-04-08T12:00:25;102221.47;;;20.73;49.60
58690;BME280;44470;53.206;-6.106;2023-04-08T12:02:52;102225.94;;;20.68;49.72
58690;BME280;44470;53.206;-6.106;2023-04-08T12:05:18;102218.75;;;20.67;49.87
58690;BME280;44470;53.206;-6.106;2023-04-08T12:07:43;102218.78;;;20.70;49.46
58690;BME280;44470;53.206;-6.106;2023-04-08T12:10:10;102212.53;;;20.73;49.84
58690;BME280;44470;53.206;-6.106;2023-04-08T12:12:36;102204.50;;;20.65;49.72
58690;BME280;44470;53.206;-6.106;2023-04-08T12:15:02;102231.28;;;20.71;49.70
58690;BME280;44470;53.206;-6.106;2023-04-08T12:17:28;102226.81;;;20.73;49.46
58690;BME280;44470;53.206;-6.106;2023-04-08T12:19:53;102236.63;;;20.74;49.95
58690;BME280;44470;53.206;-6.106;2023-04-08T12:22:18;102233.09;;;20.79;50.35
58690;BME280;44470;53.206;-6.106;2023-04-08T12:24:44;102222.38;;;20.69;50.01
58690;BME280;44470;53.206;-6.106;2023-04-08T12:27:10;102235.75;;;20.75;50.42
58690;BME280;44470;53.206;-6.106;2023-04-08T12:29:35;102232.19;;;20.76;50.43
58690;BME280;44470;53.206;-6.106;2023-04-08T12:32:01;102226.81;;;20.72;50.38
58690;BME280;44470;53.206;-6.106;2023-04-08T12:34:28;102234.84;;;20.76;50.08
58690;BME280;44470;53.206;-6.106;2023-04-08T12:36:54;102225.03;;;20.77;50.29
58690;BME280;44470;53.206;-6.106;2023-04-08T12:39:20;102195.59;;;20.65;50.14
58690;BME280;44470;53.206;-6.106;2023-04-08T12:41:46;102218.78;;;20.76;49.93
58690;BME280;44470;53.206;-6.106;2023-04-08T12:44:12;102223.25;;;20.77;49.80
58690;BME280;44470;53.206;-6.106;2023-04-08T12:46:38;102224.16;;;20.81;50.24
58690;BME280;44470;53.206;-6.106;2023-04-08T12:49:03;102220.59;;;20.81;48.95
58690;BME280;44470;53.206;-6.106;2023-04-08T12:51:28;102205.41;;;20.70;50.04
58690;BME280;44470;53.206;-6.106;2023-04-08T12:53:55;102207.19;;;20.71;49.37
58690;BME280;44470;53.206;-6.106;2023-04-08T12:56:20;102210.75;;;20.75;49.31
58690;BME280;44470;53.206;-6.106;2023-04-08T12:58:46;102212.53;;;20.73;49.95
58690;BME280;44470;53.206;-6.106;2023-04-08T13:01:12;102207.19;;;20.67;47.84
58690;BME280;44470;53.206;-6.106;2023-04-08T13:03:38;102216.94;;;20.29;46.64
58690;BME280;44470;53.206;-6.106;2023-04-08T13:06:03;102205.31;;;20.03;46.04
58690;BME280;44470;53.206;-6.106;2023-04-08T13:08:29;102217.66;;;19.84;46.23